sensor_id;sensor_type;location;lat;lon;timestamp;noise_LAeq;noise_LA_min;noise_LA_max;noise_LA01;noise_LA95
72805;Laerm;60920;48.748;19.142;2024-01-10T00:01:39;29.05;27.72;30.20;;
72805;Laerm;60920;48.748;19.142;2024-01-10T00:04:05;29.09;27.83;30.35;;
72805;Laerm;60920;48.748;19.142;2024-01-10T00:06:30;29.07;27.70;30.43;;
72805;Laerm;60920;48.748;19.142;2024-01-10T00:08:55;29.05;27.81;30.26;;
72805;Laerm;60920;48.748;19.142;2024-01-10T00:11:21;29.07;27.79;30.17;;
72805;Laerm;60920;48.748;19.142;2024-01-10T00:13:46;29.06;27.75;30.31;;
72805;Laerm;60920;48.748;19.142;2024-01-10T00:16:12;29.07;27.54;30.16;;
72805;Laerm;60920;48.748;19.142;2024-01-10T00:18:38;29.09;27.51;30.29;;
72805;Laerm;60920;48.748;19.142;2024-01-10T00:21:05;29.10;27.76;30.33;;
72805;Laerm;60920;48.748;19.142;2024-01-10T00:23:30;29.11;27.81;30.31;;
72805;Laerm;60920;48.748;19.142;2024-01-10T00:25:55;29.16;27.93;30.35;;
72805;Laerm;60920;48.748;19.142;2024-01-10T00:28:21;29.14;27.68;30.26;;
72805;Laerm;60920;48.748;19.142;2024-01-10T00:30:46;29.13;27.78;30.61;;
72805;Laerm;60920;48.748;19.142;2024-01-10T00:33:14;29.15;27.88;30.36;;
72805;Laerm;60920;48.748;19.142;2024-01-10T00:35:40;29.17;27.79;30.29;;
72805;Laerm;60920;48.748;19.142;2024-01-10T00:38:05;29.16;27.87;30.40;;
72805;Laerm;60920;48.748;19.142;2024-01-10T00:40:30;29.17;27.97;30.40;;
72805;Laerm;60920;48.748;19.142;2024-01-10T00:42:56;29.13;27.85;30.30;;
72805;Laerm;60920;48.748;19.142;2024-01-10T00:45:21;29.13;27.90;30.32;;
72805;Laerm;60920;48.748;19.142;2024-01-10T00:47:49;29.13;27.80;30.23;;
72805;Laerm;60920;48.748;19.142;2024-01-10T00:50:15;29.13;27.78;30.39;;
72805;Laerm;60920;48.748;19.142;2024-01-10T00:52:40;29.18;27.95;30.42;;
72805;Laerm;60920;48.748;19.142;2024-01-10T00:55:05;29.20;27.96;30.57;;
72805;Laerm;60920;48.748;19.142;2024-01-10T00:57:31;29.17;27.92;30.39;;
72805;Laerm;60920;48.748;19.142;2024-01-10T00:59:56;29.17;27.94;30.45;;
72805;Laerm;60920;48.748;19.142;2024-01-10T01:02:21;29.18;27.79;30.43;;
72805;Laerm;60920;48.748;19.142;2024-01-10T01:04:46;29.20;28.07;30.31;;
72805;Laerm;60920;48.748;19.142;2024-01-10T01:07:12;29.20;27.96;30.38;;
72805;Laerm;60920;48.748;19.142;2024-01-10T01:09:37;29.28;27.93;30.32;;
72805;Laerm;60920;48.748;19.142;2024-01-10T01:12:02;29.27;28.04;30.35;;
72805;Laerm;60920;48.748;19.142;2024-01-10T01:14:28;29.22;27.95;30.60;;
72805;Laerm;60920;48.748;19.142;2024-01-10T01:16:53;29.12;27.94;30.34;;
72805;Laerm;60920;48.748;19.142;2024-01-10T01:19:19;29.08;27.63;30.40;;
72805;Laerm;60920;48.748;19.142;2024-01-10T01:21:44;29.11;27.86;30.35;;
72805;Laerm;60920;48.748;19.142;2024-01-10T01:24:09;29.11;27.90;30.41;;
72805;Laerm;60920;48.748;19.142;2024-01-10T01:26:36;29.12;27.78;30.33;;
72805;Laerm;60920;48.748;19.142;2024-01-10T01:29:01;29.13;27.82;30.52;;
72805;Laerm;60920;48.748;19.142;2024-01-10T01:31:26;29.14;27.67;30.35;;
72805;Laerm;60920;48.748;19.142;2024-01-10T01:33:51;29.23;27.93;30.33;;
72805;Laerm;60920;48.748;19.142;2024-01-10T01:36:17;29.25;27.77;30.39;;
72805;Laerm;60920;48.748;19.142;2024-01-10T01:38:43;29.17;27.97;30.44;;
72805;Laerm;60920;48.748;19.142;2024-01-10T01:41:09;29.19;27.50;30.40;;
72805;Laerm;60920;48.748;19.142;2024-01-10T01:43:34;29.24;27.89;30.47;;
72805;Laerm;60920;48.748;19.142;2024-01-10T01:46:00;29.27;28.04;30.52;;
72805;Laerm;60920;48.748;19.142;2024-01-10T01:48:26;29.27;27.68;30.47;;
72805;Laerm;60920;48.748;19.142;2024-01-10T01:50:54;29.27;28.04;30.53;;
72805;Laerm;60920;48.748;19.142;2024-01-10T01:53:21;29.24;27.75;30.41;;
72805;Laerm;60920;48.748;19.142;2024-01-10T01:55:47;29.23;27.71;30.31;;
72805;Laerm;60920;48.748;19.142;2024-01-10T01:58:12;29.20;27.95;30.39;;
72805;Laerm;60920;48.748;19.142;2024-01-10T02:00:38;29.18;27.80;30.33;;
72805;Laerm;60920;48.748;19.142;2024-01-10T02:03:10;29.19;27.99;30.47;;
72805;Laerm;60920;48.748;19.142;2024-01-10T02:05:36;29.19;28.01;30.36;;
72805;Laerm;60920;48.748;19.142;2024-01-10T02:08:02;29.22;27.89;30.60;;
72805;Laerm;60920;48.748;19.142;2024-01-10T02:10:27;29.27;27.99;30.31;;
72805;Laerm;60920;48.748;19.142;2024-01-10T02:12:52;29.28;27.89;30.50;;
72805;Laerm;60920;48.748;19.142;2024-01-10T02:15:18;29.30;27.93;30.51;;
72805;Laerm;60920;48.748;19.142;2024-01-10T02:17:44;29.30;27.73;30.52;;
72805;Laerm;60920;48.748;19.142;2024-01-10T02:20:09;29.35;28.08;30.59;;
72805;Laerm;60920;48.748;19.142;2024-01-10T02:22:35;29.41;28.02;30.58;;
72805;Laerm;60920;48.748;19.142;2024-01-10T02:25:00;29.38;28.07;30.85;;
72805;Laerm;60920;48.748;19.142;2024-01-10T02:27:25;29.30;28.09;30.69;;
72805;Laerm;60920;48.748;19.142;2024-01-10T02:29:51;29.28;27.88;30.71;;
72805;Laerm;60920;48.748;19.142;2024-01-10T02:32:17;29.26;28.11;30.45;;
72805;Laerm;60920;48.748;19.142;2024-01-10T02:34:42;29.28;28.11;30.47;;
72805;Laerm;60920;48.748;19.142;2024-01-10T02:37:07;29.26;27.94;30.56;;
72805;Laerm;60920;48.748;19.142;2024-01-10T02:39:33;29.28;27.77;30.38;;
72805;Laerm;60920;48.748;19.142;2024-01-10T02:41:58;29.31;27.72;30.54;;
72805;Laerm;60920;48.748;19.142;2024-01-10T02:44:23;29.30;28.07;30.37;;
72805;Laerm;60920;48.748;19.142;2024-01-10T02:46:48;29.36;27.92;30.64;;
72805;Laerm;60920;48.748;19.142;2024-01-10T02:49:13;29.34;28.09;30.44;;
72805;Laerm;60920;48.748;19.142;2024-01-10T02:51:39;29.34;28.11;30.47;;
72805;Laerm;60920;48.748;19.142;2024-01-10T02:54:04;29.35;27.99;30.52;;
72805;Laerm;60920;48.748;19.142;2024-01-10T02:56:29;29.38;28.06;30.68;;
72805;Laerm;60920;48.748;19.142;2024-01-10T02:58:54;29.35;28.01;30.73;;
72805;Laerm;60920;48.748;19.142;2024-01-10T03:01:20;29.37;28.05;30.52;;
72805;Laerm;60920;48.748;19.142;2024-01-10T03:03:45;29.36;27.81;30.65;;
72805;Laerm;60920;48.748;19.142;2024-01-10T03:06:10;29.41;28.19;30.68;;
72805;Laerm;60920;48.748;19.142;2024-01-10T03:08:36;29.43;28.14;30.76;;
72805;Laerm;60920;48.748;19.142;2024-01-10T03:11:01;29.46;28.20;30.71;;
72805;Laerm;60920;48.748;19.142;2024-01-10T03:13:26;29.44;28.18;30.66;;
72805;Laerm;60920;48.748;19.142;2024-01-10T03:15:51;29.44;28.06;30.61;;
72805;Laerm;60920;48.748;19.142;2024-01-10T03:18:17;29.43;28.00;30.63;;
72805;Laerm;60920;48.748;19.142;2024-01-10T03:20:42;29.42;28.22;30.52;;
72805;Laerm;60920;48.748;19.142;2024-01-10T03:23:07;29.43;28.23;30.65;;
72805;Laerm;60920;48.748;19.142;2024-01-10T03:25:33;29.42;28.02;30.64;;
72805;Laerm;60920;48.748;19.142;2024-01-10T03:27:58;29.40;28.03;30.77;;
72805;Laerm;60920;48.748;19.142;2024-01-10T03:30:23;29.40;28.01;30.79;;
72805;Laerm;60920;48.748;19.142;2024-01-10T03:32:49;29.42;28.16;30.71;;
72805;Laerm;60920;48.748;19.142;2024-01-10T03:35:14;29.41;27.86;30.65;;
72805;Laerm;60920;48.748;19.142;2024-01-10T03:37:40;29.44;27.95;30.66;;
72805;Laerm;60920;48.748;19.142;2024-01-10T03:40:05;29.46;28.16;30.61;;
72805;Laerm;60920;48.748;19.142;2024-01-10T03:42:31;29.48;28.12;30.67;;
72805;Laerm;60920;48.748;19.142;2024-01-10T03:44:56;29.47;28.35;30.82;;
72805;Laerm;60920;48.748;19.142;2024-01-10T03:47:22;29.47;28.15;30.56;;
72805;Laerm;60920;48.748;19.142;2024-01-10T03:49:47;29.46;28.17;30.58;;
72805;Laerm;60920;48.748;19.142;2024-01-10T03:52:12;29.46;28.32;30.64;;
72805;Laerm;60920;48.748;19.142;2024-01-10T03:54:38;29.45;28.09;30.74;;
72805;Laerm;60920;48.748;19.142;2024-01-10T03:57:04;29.44;28.29;30.79;;
72805;Laerm;60920;48.748;19.142;2024-01-10T03:59:29;29.49;28.34;30.74;;
72805;Laerm;60920;48.748;19.142;2024-01-10T04:01:54;29.49;28.25;30.71;;
72805;Laerm;60920;48.748;19.142;2024-01-10T04:04:20;29.47;28.30;30.56;;
72805;Laerm;60920;48.748;19.142;2024-01-10T04:06:45;29.50;28.17;30.96;;
72805;Laerm;60920;48.748;19.142;2024-01-10T04:09:11;29.50;28.19;30.74;;
72805;Laerm;60920;48.748;19.142;2024-01-10T04:11:38;29.49;28.11;30.54;;
72805;Laerm;60920;48.748;19.142;2024-01-10T04:14:03;29.49;28.06;30.98;;
72805;Laerm;60920;48.748;19.142;2024-01-10T04:16:29;29.50;28.13;30.80;;
72805;Laerm;60920;48.748;19.142;2024-01-10T04:18:54;29.50;28.31;30.64;;
72805;Laerm;60920;48.748;19.142;2024-01-10T04:21:19;29.50;28.15;30.63;;
72805;Laerm;60920;48.748;19.142;2024-01-10T04:23:45;29.49;28.17;30.66;;
72805;Laerm;60920;48.748;19.142;2024-01-10T04:26:10;29.51;28.05;30.65;;
72805;Laerm;60920;48.748;19.142;2024-01-10T04:28:35;29.50;28.23;30.90;;
72805;Laerm;60920;48.748;19.142;2024-01-10T04:31:01;29.49;28.05;30.75;;
72805;Laerm;60920;48.748;19.142;2024-01-10T04:33:28;29.50;28.33;30.77;;
72805;Laerm;60920;48.748;19.142;2024-01-10T04:35:53;29.50;28.00;30.60;;
72805;Laerm;60920;48.748;19.142;2024-01-10T04:38:19;29.50;27.86;30.82;;
72805;Laerm;60920;48.748;19.142;2024-01-10T04:40:44;29.51;28.07;30.57;;
72805;Laerm;60920;48.748;19.142;2024-01-10T04:43:09;29.51;28.15;30.58;;
72805;Laerm;60920;48.748;19.142;2024-01-10T04:45:35;29.52;28.19;30.79;;
72805;Laerm;60920;48.748;19.142;2024-01-10T04:48:00;29.52;28.18;30.67;;
72805;Laerm;60920;48.748;19.142;2024-01-10T04:50:25;29.52;28.34;30.62;;
72805;Laerm;60920;48.748;19.142;2024-01-10T04:52:51;29.50;28.18;30.56;;
72805;Laerm;60920;48.748;19.142;2024-01-10T04:55:16;29.50;28.24;30.69;;
72805;Laerm;60920;48.748;19.142;2024-01-10T04:57:41;29.52;28.15;31.00;;
72805;Laerm;60920;48.748;19.142;2024-01-10T05:00:07;29.50;28.19;30.91;;
72805;Laerm;60920;48.748;19.142;2024-01-10T05:02:32;29.52;28.16;30.70;;
72805;Laerm;60920;48.748;19.142;2024-01-10T05:04:58;29.50;28.12;30.62;;
72805;Laerm;60920;48.748;19.142;2024-01-10T05:07:23;29.50;28.29;30.72;;
72805;Laerm;60920;48.748;19.142;2024-01-10T05:09:48;29.52;28.12;30.67;;
72805;Laerm;60920;48.748;19.142;2024-01-10T05:12:13;29.52;28.09;30.73;;
72805;Laerm;60920;48.748;19.142;2024-01-10T05:14:39;29.51;28.30;30.60;;
72805;Laerm;60920;48.748;19.142;2024-01-10T05:17:04;29.51;28.15;30.88;;
72805;Laerm;60920;48.748;19.142;2024-01-10T05:19:29;29.52;28.30;30.78;;
72805;Laerm;60920;48.748;19.142;2024-01-10T05:21:54;29.52;28.19;30.81;;
72805;Laerm;60920;48.748;19.142;2024-01-10T05:24:20;29.52;28.14;30.69;;
72805;Laerm;60920;48.748;19.142;2024-01-10T05:26:45;29.52;28.25;30.84;;
72805;Laerm;60920;48.748;19.142;2024-01-10T05:29:11;29.53;28.17;30.65;;
72805;Laerm;60920;48.748;19.142;2024-01-10T05:31:36;29.54;28.31;30.66;;
72805;Laerm;60920;48.748;19.142;2024-01-10T05:34:01;29.54;28.30;30.71;;
72805;Laerm;60920;48.748;19.142;2024-01-10T05:36:26;29.52;28.31;30.55;;
72805;Laerm;60920;48.748;19.142;2024-01-10T05:38:52;29.52;28.13;30.74;;
72805;Laerm;60920;48.748;19.142;2024-01-10T05:41:17;29.53;28.31;30.86;;
72805;Laerm;60920;48.748;19.142;2024-01-10T05:43:42;29.55;28.37;30.72;;
72805;Laerm;60920;48.748;19.142;2024-01-10T05:46:09;29.54;28.15;30.71;;
72805;Laerm;60920;48.748;19.142;2024-01-10T05:48:35;29.54;28.26;30.72;;
72805;Laerm;60920;48.748;19.142;2024-01-10T05:51:01;29.53;28.26;30.81;;
72805;Laerm;60920;48.748;19.142;2024-01-10T05:53:26;29.53;28.27;30.84;;
72805;Laerm;60920;48.748;19.142;2024-01-10T05:55:51;29.52;28.24;31.06;;
72805;Laerm;60920;48.748;19.142;2024-01-10T05:58:17;29.54;28.20;30.77;;
72805;Laerm;60920;48.748;19.142;2024-01-10T06:00:42;29.52;28.30;30.66;;
72805;Laerm;60920;48.748;19.142;2024-01-10T06:03:07;29.54;28.35;30.74;;
72805;Laerm;60920;48.748;19.142;2024-01-10T06:05:33;29.53;28.33;30.59;;
72805;Laerm;60920;48.748;19.142;2024-01-10T06:07:58;29.54;28.26;30.97;;
72805;Laerm;60920;48.748;19.142;2024-01-10T06:10:23;29.54;28.07;32.52;;
72805;Laerm;60920;48.748;19.142;2024-01-10T06:12:49;29.56;28.11;30.84;;
72805;Laerm;60920;48.748;19.142;2024-01-10T06:15:14;29.55;28.01;30.95;;
72805;Laerm;60920;48.748;19.142;2024-01-10T06:17:39;29.54;28.35;30.94;;
72805;Laerm;60920;48.748;19.142;2024-01-10T06:20:05;29.55;28.25;30.76;;
72805;Laerm;60920;48.748;19.142;2024-01-10T06:22:31;29.54;28.10;31.11;;
72805;Laerm;60920;48.748;19.142;2024-01-10T06:24:57;29.55;28.42;30.72;;
72805;Laerm;60920;48.748;19.142;2024-01-10T06:27:22;29.57;28.35;30.68;;
72805;Laerm;60920;48.748;19.142;2024-01-10T06:29:47;29.55;28.30;30.69;;
72805;Laerm;60920;48.748;19.142;2024-01-10T06:32:13;29.57;28.03;30.81;;
72805;Laerm;60920;48.748;19.142;2024-01-10T06:34:39;29.56;28.28;30.74;;
72805;Laerm;60920;48.748;19.142;2024-01-10T06:37:04;29.53;28.37;30.64;;
72805;Laerm;60920;48.748;19.142;2024-01-10T06:39:32;29.54;28.17;30.85;;
72805;Laerm;60920;48.748;19.142;2024-01-10T06:41:57;29.55;28.36;30.73;;
72805;Laerm;60920;48.748;19.142;2024-01-10T06:44:23;29.57;28.20;30.75;;
72805;Laerm;60920;48.748;19.142;2024-01-10T06:46:48;29.56;28.22;30.77;;
72805;Laerm;60920;48.748;19.142;2024-01-10T06:49:13;29.55;28.14;30.95;;
72805;Laerm;60920;48.748;19.142;2024-01-10T06:51:39;29.54;28.17;30.68;;
72805;Laerm;60920;48.748;19.142;2024-01-10T06:54:04;29.56;28.39;30.79;;
72805;Laerm;60920;48.748;19.142;2024-01-10T06:56:33;29.56;27.96;30.69;;
72805;Laerm;60920;48.748;19.142;2024-01-10T06:58:59;29.56;28.33;30.92;;
72805;Laerm;60920;48.748;19.142;2024-01-10T07:01:25;29.54;28.15;30.76;;
72805;Laerm;60920;48.748;19.142;2024-01-10T07:03:52;29.56;28.29;30.79;;
72805;Laerm;60920;48.748;19.142;2024-01-10T07:06:17;29.53;28.14;31.23;;
72805;Laerm;60920;48.748;19.142;2024-01-10T07:08:43;29.54;28.27;33.36;;
72805;Laerm;60920;48.748;19.142;2024-01-10T07:11:09;29.53;28.24;30.94;;
72805;Laerm;60920;48.748;19.142;2024-01-10T07:13:36;29.54;28.12;30.98;;
72805;Laerm;60920;48.748;19.142;2024-01-10T07:16:02;29.53;27.90;30.91;;
72805;Laerm;60920;48.748;19.142;2024-01-10T07:18:33;29.54;28.15;30.84;;
72805;Laerm;60920;48.748;19.142;2024-01-10T07:20:58;29.56;28.20;33.68;;
72805;Laerm;60920;48.748;19.142;2024-01-10T07:23:24;29.52;28.31;30.86;;
72805;Laerm;60920;48.748;19.142;2024-01-10T07:25:49;29.54;28.28;30.79;;
72805;Laerm;60920;48.748;19.142;2024-01-10T07:28:18;29.51;28.28;30.64;;
72805;Laerm;60920;48.748;19.142;2024-01-10T07:30:44;29.52;28.23;30.63;;
72805;Laerm;60920;48.748;19.142;2024-01-10T07:33:09;29.54;28.17;30.74;;
72805;Laerm;60920;48.748;19.142;2024-01-10T07:35:35;29.51;28.24;30.72;;
72805;Laerm;60920;48.748;19.142;2024-01-10T07:38:00;29.50;28.22;30.77;;
72805;Laerm;60920;48.748;19.142;2024-01-10T07:40:25;29.49;28.20;30.84;;
72805;Laerm;60920;48.748;19.142;2024-01-10T07:42:51;29.48;28.33;30.69;;
72805;Laerm;60920;48.748;19.142;2024-01-10T07:45:16;29.50;27.88;30.58;;
72805;Laerm;60920;48.748;19.142;2024-01-10T07:47:41;29.49;28.09;30.76;;
72805;Laerm;60920;48.748;19.142;2024-01-10T07:50:07;29.50;28.09;30.61;;
72805;Laerm;60920;48.748;19.142;2024-01-10T07:52:33;29.52;28.11;30.87;;
72805;Laerm;60920;48.748;19.142;2024-01-10T07:54:59;29.53;28.17;31.39;;
72805;Laerm;60920;48.748;19.142;2024-01-10T07:57:24;29.49;28.10;30.67;;
72805;Laerm;60920;48.748;19.142;2024-01-10T07:59:49;29.46;28.15;32.20;;
72805;Laerm;60920;48.748;19.142;2024-01-10T08:02:15;29.37;27.89;30.64;;
72805;Laerm;60920;48.748;19.142;2024-01-10T08:04:41;29.36;28.20;30.57;;
72805;Laerm;60920;48.748;19.142;2024-01-10T08:07:07;29.32;27.70;30.55;;
72805;Laerm;60920;48.748;19.142;2024-01-10T08:09:33;29.21;27.90;30.48;;
72805;Laerm;60920;48.748;19.142;2024-01-10T08:11:58;29.07;27.72;30.20;;
72805;Laerm;60920;48.748;19.142;2024-01-10T08:14:23;29.03;27.75;30.34;;
72805;Laerm;60920;48.748;19.142;2024-01-10T08:16:49;29.04;27.74;30.48;;
72805;Laerm;60920;48.748;19.142;2024-01-10T08:19:16;29.04;27.86;34.17;;
72805;Laerm;60920;48.748;19.142;2024-01-10T08:21:41;28.98;27.62;30.23;;
72805;Laerm;60920;48.748;19.142;2024-01-10T08:24:06;28.98;27.66;30.28;;
72805;Laerm;60920;48.748;19.142;2024-01-10T08:26:32;28.97;27.80;30.22;;
72805;Laerm;60920;48.748;19.142;2024-01-10T08:28:57;29.00;27.89;30.08;;
72805;Laerm;60920;48.748;19.142;2024-01-10T08:31:22;29.05;27.84;30.42;;
72805;Laerm;60920;48.748;19.142;2024-01-10T08:33:48;29.06;27.76;30.23;;
72805;Laerm;60920;48.748;19.142;2024-01-10T08:36:14;29.15;27.93;30.31;;
72805;Laerm;60920;48.748;19.142;2024-01-10T08:38:39;29.24;28.15;30.30;;
72805;Laerm;60920;48.748;19.142;2024-01-10T08:41:07;29.35;27.96;30.78;;
72805;Laerm;60920;48.748;19.142;2024-01-10T08:43:33;29.49;28.41;30.82;;
72805;Laerm;60920;48.748;19.142;2024-01-10T08:45:59;29.65;28.35;30.69;;
72805;Laerm;60920;48.748;19.142;2024-01-10T08:48:24;29.35;27.90;30.67;;
72805;Laerm;60920;48.748;19.142;2024-01-10T08:50:50;29.18;27.59;30.52;;
72805;Laerm;60920;48.748;19.142;2024-01-10T08:53:15;29.89;27.75;31.79;;
72805;Laerm;60920;48.748;19.142;2024-01-10T08:55:41;30.93;29.67;36.71;;
72805;Laerm;60920;48.748;19.142;2024-01-10T08:58:06;30.65;29.42;31.88;;
72805;Laerm;60920;48.748;19.142;2024-01-10T09:00:32;30.26;28.80;31.67;;
72805;Laerm;60920;48.748;19.142;2024-01-10T09:02:57;29.79;28.40;31.35;;
72805;Laerm;60920;48.748;19.142;2024-01-10T09:05:22;29.50;27.96;30.77;;
72805;Laerm;60920;48.748;19.142;2024-01-10T09:07:48;29.26;27.76;30.47;;
72805;Laerm;60920;48.748;19.142;2024-01-10T09:10:13;29.06;27.65;30.59;;
72805;Laerm;60920;48.748;19.142;2024-01-10T09:12:38;29.01;27.66;30.11;;
72805;Laerm;60920;48.748;19.142;2024-01-10T09:15:04;28.91;27.53;30.16;;
72805;Laerm;60920;48.748;19.142;2024-01-10T09:17:29;28.67;27.16;30.05;;
72805;Laerm;60920;48.748;19.142;2024-01-10T09:19:55;28.51;27.13;29.69;;
72805;Laerm;60920;48.748;19.142;2024-01-10T09:22:20;28.49;27.25;30.39;;
72805;Laerm;60920;48.748;19.142;2024-01-10T09:24:45;28.53;27.23;31.09;;
72805;Laerm;60920;48.748;19.142;2024-01-10T09:27:11;28.42;26.93;35.09;;
72805;Laerm;60920;48.748;19.142;2024-01-10T09:29:36;28.27;26.81;29.39;;
72805;Laerm;60920;48.748;19.142;2024-01-10T09:32:02;28.21;26.93;30.01;;
72805;Laerm;60920;48.748;19.142;2024-01-10T09:34:27;28.18;26.84;29.50;;
72805;Laerm;60920;48.748;19.142;2024-01-10T09:36:52;28.17;26.64;29.62;;
72805;Laerm;60920;48.748;19.142;2024-01-10T09:39:17;28.13;26.90;30.17;;
72805;Laerm;60920;48.748;19.142;2024-01-10T09:41:46;27.99;26.63;29.64;;
72805;Laerm;60920;48.748;19.142;2024-01-10T09:44:16;28.08;26.80;29.42;;
72805;Laerm;60920;48.748;19.142;2024-01-10T09:46:52;28.06;26.84;29.71;;
72805;Laerm;60920;48.748;19.142;2024-01-10T09:49:19;28.00;26.71;29.41;;
72805;Laerm;60920;48.748;19.142;2024-01-10T09:51:47;27.91;26.54;30.13;;
72805;Laerm;60920;48.748;19.142;2024-01-10T09:54:13;27.81;26.21;29.34;;
72805;Laerm;60920;48.748;19.142;2024-01-10T09:56:41;27.87;26.61;29.16;;
72805;Laerm;60920;48.748;19.142;2024-01-10T09:59:06;27.88;26.43;29.43;;
72805;Laerm;60920;48.748;19.142;2024-01-10T10:01:35;27.91;26.14;30.21;;
72805;Laerm;60920;48.748;19.142;2024-01-10T10:04:01;27.87;26.64;30.02;;
72805;Laerm;60920;48.748;19.142;2024-01-10T10:06:27;27.95;26.65;29.73;;
72805;Laerm;60920;48.748;19.142;2024-01-10T10:08:52;27.97;26.62;31.75;;
72805;Laerm;60920;48.748;19.142;2024-01-10T10:11:17;27.83;26.57;32.07;;
72805;Laerm;60920;48.748;19.142;2024-01-10T10:13:43;27.85;26.55;31.03;;
72805;Laerm;60920;48.748;19.142;2024-01-10T10:16:08;27.80;26.59;30.78;;
72805;Laerm;60920;48.748;19.142;2024-01-10T10:18:34;27.79;26.36;29.55;;
72805;Laerm;60920;48.748;19.142;2024-01-10T10:23:32;27.93;26.25;30.44;;
72805;Laerm;60920;48.748;19.142;2024-01-10T10:25:58;27.80;26.55;29.15;;
72805;Laerm;60920;48.748;19.142;2024-01-10T10:28:28;27.85;26.68;29.07;;
72805;Laerm;60920;48.748;19.142;2024-01-10T10:30:53;27.80;26.31;29.31;;
72805;Laerm;60920;48.748;19.142;2024-01-10T10:33:19;27.78;26.42;29.23;;
72805;Laerm;60920;48.748;19.142;2024-01-10T10:35:44;27.72;26.39;29.06;;
72805;Laerm;60920;48.748;19.142;2024-01-10T10:38:09;27.71;26.44;28.98;;
72805;Laerm;60920;48.748;19.142;2024-01-10T10:40:35;27.74;26.56;29.29;;
72805;Laerm;60920;48.748;19.142;2024-01-10T10:43:01;27.75;26.44;29.03;;
72805;Laerm;60920;48.748;19.142;2024-01-10T10:45:28;27.73;26.39;29.09;;
72805;Laerm;60920;48.748;19.142;2024-01-10T10:47:56;27.61;26.30;29.21;;
72805;Laerm;60920;48.748;19.142;2024-01-10T10:50:22;27.60;26.35;29.13;;
72805;Laerm;60920;48.748;19.142;2024-01-10T10:52:48;27.66;26.06;30.18;;
72805;Laerm;60920;48.748;19.142;2024-01-10T10:55:20;27.59;26.19;29.06;;
72805;Laerm;60920;48.748;19.142;2024-01-10T10:57:46;27.69;26.39;29.90;;
72805;Laerm;60920;48.748;19.142;2024-01-10T11:00:21;27.63;26.35;28.98;;
72805;Laerm;60920;48.748;19.142;2024-01-10T11:02:52;27.59;26.38;28.93;;
72805;Laerm;60920;48.748;19.142;2024-01-10T11:05:18;27.62;26.25;29.05;;
72805;Laerm;60920;48.748;19.142;2024-01-10T11:07:43;27.70;26.38;29.15;;
72805;Laerm;60920;48.748;19.142;2024-01-10T11:10:16;27.71;26.43;29.46;;
72805;Laerm;60920;48.748;19.142;2024-01-10T11:12:48;27.65;26.33;28.96;;
72805;Laerm;60920;48.748;19.142;2024-01-10T11:18:16;27.64;26.35;28.94;;
72805;Laerm;60920;48.748;19.142;2024-01-10T11:21:06;27.63;26.32;28.94;;
72805;Laerm;60920;48.748;19.142;2024-01-10T11:23:53;27.63;26.24;28.90;;
72805;Laerm;60920;48.748;19.142;2024-01-10T11:26:19;27.58;26.07;28.83;;
72805;Laerm;60920;48.748;19.142;2024-01-10T11:28:45;27.55;26.15;30.42;;
72805;Laerm;60920;48.748;19.142;2024-01-10T11:31:11;27.51;25.92;28.92;;
72805;Laerm;60920;48.748;19.142;2024-01-10T11:33:39;27.54;26.16;29.21;;
72805;Laerm;60920;48.748;19.142;2024-01-10T11:38:31;27.65;26.20;29.86;;
72805;Laerm;60920;48.748;19.142;2024-01-10T11:40:56;27.59;26.15;28.92;;
72805;Laerm;60920;48.748;19.142;2024-01-10T11:43:22;27.70;26.25;29.64;;
72805;Laerm;60920;48.748;19.142;2024-01-10T11:45:51;27.51;26.22;28.66;;
72805;Laerm;60920;48.748;19.142;2024-01-10T11:48:21;27.52;26.16;29.15;;
72805;Laerm;60920;48.748;19.142;2024-01-10T11:50:50;27.60;26.23;29.16;;
72805;Laerm;60920;48.748;19.142;2024-01-10T11:53:37;27.70;26.27;30.60;;
72805;Laerm;60920;48.748;19.142;2024-01-10T11:56:02;27.44;26.12;28.89;;
72805;Laerm;60920;48.748;19.142;2024-01-10T11:58:33;27.46;25.76;29.15;;
72805;Laerm;60920;48.748;19.142;2024-01-10T12:01:16;27.41;26.08;28.84;;
72805;Laerm;60920;48.748;19.142;2024-01-10T12:03:42;27.49;26.22;29.74;;
72805;Laerm;60920;48.748;19.142;2024-01-10T12:06:07;27.37;26.03;28.64;;
72805;Laerm;60920;48.748;19.142;2024-01-10T12:08:33;27.40;26.01;29.34;;
72805;Laerm;60920;48.748;19.142;2024-01-10T12:10:58;27.47;25.85;30.14;;
72805;Laerm;60920;48.748;19.142;2024-01-10T12:13:23;27.38;26.01;28.62;;
72805;Laerm;60920;48.748;19.142;2024-01-10T12:15:49;27.56;26.18;29.62;;
72805;Laerm;60920;48.748;19.142;2024-01-10T12:18:14;27.44;26.12;29.13;;
72805;Laerm;60920;48.748;19.142;2024-01-10T12:20:40;27.49;26.17;30.67;;
72805;Laerm;60920;48.748;19.142;2024-01-10T12:23:08;27.47;26.08;28.74;;
72805;Laerm;60920;48.748;19.142;2024-01-10T12:25:33;27.41;25.98;28.77;;
72805;Laerm;60920;48.748;19.142;2024-01-10T12:28:02;27.53;26.23;29.67;;
72805;Laerm;60920;48.748;19.142;2024-01-10T12:30:27;27.59;26.26;29.46;;
72805;Laerm;60920;48.748;19.142;2024-01-10T12:32:53;27.57;26.28;29.28;;
72805;Laerm;60920;48.748;19.142;2024-01-10T12:35:19;27.53;26.11;28.85;;
72805;Laerm;60920;48.748;19.142;2024-01-10T12:37:54;27.55;26.22;28.78;;
72805;Laerm;60920;48.748;19.142;2024-01-10T12:40:20;27.57;26.26;28.93;;
72805;Laerm;60920;48.748;19.142;2024-01-10T12:42:45;27.62;25.97;30.53;;
72805;Laerm;60920;48.748;19.142;2024-01-10T12:45:23;27.58;26.36;29.03;;
72805;Laerm;60920;48.748;19.142;2024-01-10T12:47:49;27.68;26.18;29.62;;
72805;Laerm;60920;48.748;19.142;2024-01-10T12:50:14;27.70;26.37;28.95;;
72805;Laerm;60920;48.748;19.142;2024-01-10T12:52:40;27.58;26.14;29.33;;
72805;Laerm;60920;48.748;19.142;2024-01-10T12:55:07;27.63;26.39;28.95;;
72805;Laerm;60920;48.748;19.142;2024-01-10T12:57:32;27.61;26.32;28.99;;
72805;Laerm;60920;48.748;19.142;2024-01-10T12:59:58;27.63;26.19;28.95;;
72805;Laerm;60920;48.748;19.142;2024-01-10T13:02:23;27.65;26.14;29.67;;
72805;Laerm;60920;48.748;19.142;2024-01-10T13:04:48;27.56;26.21;29.12;;
72805;Laerm;60920;48.748;19.142;2024-01-10T13:07:14;27.54;26.27;29.22;;
72805;Laerm;60920;48.748;19.142;2024-01-10T13:09:39;27.59;26.06;28.97;;
72805;Laerm;60920;48.748;19.142;2024-01-10T13:12:05;27.60;26.33;29.64;;
72805;Laerm;60920;48.748;19.142;2024-01-10T13:14:30;27.57;26.03;29.23;;
72805;Laerm;60920;48.748;19.142;2024-01-10T13:16:56;27.60;26.08;29.50;;
72805;Laerm;60920;48.748;19.142;2024-01-10T13:19:22;27.63;26.21;28.99;;
72805;Laerm;60920;48.748;19.142;2024-01-10T13:21:47;27.62;26.29;30.43;;
72805;Laerm;60920;48.748;19.142;2024-01-10T13:24:12;27.63;26.17;29.07;;
72805;Laerm;60920;48.748;19.142;2024-01-10T13:26:37;27.62;26.24;32.05;;
72805;Laerm;60920;48.748;19.142;2024-01-10T13:29:03;27.64;26.25;29.18;;
72805;Laerm;60920;48.748;19.142;2024-01-10T13:31:29;27.62;26.39;28.97;;
72805;Laerm;60920;48.748;19.142;2024-01-10T13:33:54;27.61;26.32;28.85;;